sensor_id;sensor_type;location;lat;lon;timestamp;temperature;humidity
63313;DHT22;49442;45.640;13.812;2022-12-18T12:18:41;8.70;99.90
63313;DHT22;49442;45.640;13.812;2022-12-18T12:32:19;8.30;99.90
63313;DHT22;49442;45.640;13.812;2022-12-18T12:39:51;7.80;99.90
63313;DHT22;49442;45.640;13.812;2022-12-18T12:42:58;7.80;99.90
63313;DHT22;49442;45.640;13.812;2022-12-18T12:48:07;7.80;99.90
63313;DHT22;49442;45.640;13.812;2022-12-18T12:50:40;7.80;99.90
63313;DHT22;49442;45.640;13.812;2022-12-18T12:53:08;7.70;99.90
63313;DHT22;49442;45.640;13.812;2022-12-18T12:55:34;7.60;99.90
63313;DHT22;49442;45.640;13.812;2022-12-18T13:03:43;7.70;99.90
63313;DHT22;49442;45.640;13.812;2022-12-18T13:06:19;7.70;99.90
63313;DHT22;49442;45.640;13.812;2022-12-18T13:09:06;7.70;99.90
63313;DHT22;49442;45.640;13.812;2022-12-18T13:11:36;7.60;99.90
63313;DHT22;49442;45.640;13.812;2022-12-18T13:14:47;7.60;99.90
63313;DHT22;49442;45.640;13.812;2022-12-18T13:19:49;7.60;99.90
63313;DHT22;49442;45.640;13.812;2022-12-18T13:22:31;7.60;99.90
63313;DHT22;49442;45.640;13.812;2022-12-18T13:24:59;7.60;99.90
63313;DHT22;49442;45.640;13.812;2022-12-18T13:38:36;7.40;99.90
63313;DHT22;49442;45.640;13.812;2022-12-18T13:43:47;7.40;99.90
63313;DHT22;49442;45.640;13.812;2022-12-18T13:46:42;7.40;99.90
63313;DHT22;49442;45.640;13.812;2022-12-18T13:51:43;7.30;99.90
63313;DHT22;49442;45.640;13.812;2022-12-18T13:54:30;7.20;99.90
63313;DHT22;49442;45.640;13.812;2022-12-18T13:56:58;7.20;99.90
63313;DHT22;49442;45.640;13.812;2022-12-18T13:59:26;7.10;99.90
63313;DHT22;49442;45.640;13.812;2022-12-18T14:01:52;7.00;99.90
63313;DHT22;49442;45.640;13.812;2022-12-18T14:04:20;6.90;99.90
63313;DHT22;49442;45.640;13.812;2022-12-18T14:06:47;6.90;99.90
63313;DHT22;49442;45.640;13.812;2022-12-18T14:09:16;6.90;99.90
63313;DHT22;49442;45.640;13.812;2022-12-18T14:11:50;6.90;99.90
63313;DHT22;49442;45.640;13.812;2022-12-18T14:14:17;6.90;99.90
63313;DHT22;49442;45.640;13.812;2022-12-18T14:16:44;6.90;99.90
63313;DHT22;49442;45.640;13.812;2022-12-18T14:19:16;7.40;99.90
63313;DHT22;49442;45.640;13.812;2022-12-18T14:21:47;7.90;99.90
63313;DHT22;49442;45.640;13.812;2022-12-18T14:24:15;8.30;99.90
63313;DHT22;49442;45.640;13.812;2022-12-18T14:26:42;8.10;99.90
63313;DHT22;49442;45.640;13.812;2022-12-18T14:32:11;7.70;99.90
63313;DHT22;49442;45.640;13.812;2022-12-18T14:34:38;7.40;99.90
63313;DHT22;49442;45.640;13.812;2022-12-18T14:37:04;7.30;99.90
63313;DHT22;49442;45.640;13.812;2022-12-18T14:39:29;7.00;99.90
63313;DHT22;49442;45.640;13.812;2022-12-18T14:41:55;6.90;99.90
63313;DHT22;49442;45.640;13.812;2022-12-18T14:44:21;6.70;99.90
63313;DHT22;49442;45.640;13.812;2022-12-18T14:46:49;6.50;99.90
63313;DHT22;49442;45.640;13.812;2022-12-18T14:49:31;6.40;99.90
63313;DHT22;49442;45.640;13.812;2022-12-18T14:52:00;6.30;99.90
63313;DHT22;49442;45.640;13.812;2022-12-18T14:54:28;6.20;99.90
63313;DHT22;49442;45.640;13.812;2022-12-18T14:57:23;6.10;99.90
63313;DHT22;49442;45.640;13.812;2022-12-18T14:59:50;6.00;99.90
63313;DHT22;49442;45.640;13.812;2022-12-18T15:02:25;5.90;99.90
63313;DHT22;49442;45.640;13.812;2022-12-18T15:05:03;5.70;99.90
63313;DHT22;49442;45.640;13.812;2022-12-18T15:07:46;5.60;99.90
63313;DHT22;49442;45.640;13.812;2022-12-18T15:17:59;5.40;99.90
63313;DHT22;49442;45.640;13.812;2022-12-18T15:20:31;5.30;99.90
63313;DHT22;49442;45.640;13.812;2022-12-18T15:22:58;5.20;99.90
63313;DHT22;49442;45.640;13.812;2022-12-18T15:25:28;5.20;99.90
63313;DHT22;49442;45.640;13.812;2022-12-18T15:27:57;5.10;99.90
63313;DHT22;49442;45.640;13.812;2022-12-18T15:30:24;5.10;99.90
63313;DHT22;49442;45.640;13.812;2022-12-18T15:32:51;5.00;99.90
63313;DHT22;49442;45.640;13.812;2022-12-18T15:35:22;4.90;99.90
63313;DHT22;49442;45.640;13.812;2022-12-18T15:37:50;4.90;99.90
63313;DHT22;49442;45.640;13.812;2022-12-18T15:40:21;4.90;99.90
63313;DHT22;49442;45.640;13.812;2022-12-18T15:42:48;4.90;99.90
63313;DHT22;49442;45.640;13.812;2022-12-18T15:45:32;4.90;99.90
63313;DHT22;49442;45.640;13.812;2022-12-18T15:47:58;4.90;99.90
63313;DHT22;49442;45.640;13.812;2022-12-18T15:50:25;4.90;99.90
63313;DHT22;49442;45.640;13.812;2022-12-18T15:52:52;4.80;99.90
63313;DHT22;49442;45.640;13.812;2022-12-18T15:55:21;4.80;99.90
63313;DHT22;49442;45.640;13.812;2022-12-18T15:58:08;4.70;99.90
63313;DHT22;49442;45.640;13.812;2022-12-18T16:00:35;4.70;99.90
63313;DHT22;49442;45.640;13.812;2022-12-18T16:03:02;4.60;99.90
63313;DHT22;49442;45.640;13.812;2022-12-18T16:05:28;4.60;99.90
63313;DHT22;49442;45.640;13.812;2022-12-18T16:07:54;4.60;99.90
63313;DHT22;49442;45.640;13.812;2022-12-18T16:10:20;4.50;99.90
63313;DHT22;49442;45.640;13.812;2022-12-18T16:12:46;4.50;99.90
63313;DHT22;49442;45.640;13.812;2022-12-18T16:15:13;4.40;99.90
63313;DHT22;49442;45.640;13.812;2022-12-18T16:17:42;4.50;99.90
63313;DHT22;49442;45.640;13.812;2022-12-18T16:20:18;4.40;99.90
63313;DHT22;49442;45.640;13.812;2022-12-18T16:22:46;4.40;99.90
63313;DHT22;49442;45.640;13.812;2022-12-18T16:25:24;4.40;99.90
63313;DHT22;49442;45.640;13.812;2022-12-18T16:27:51;4.30;99.90
63313;DHT22;49442;45.640;13.812;2022-12-18T16:30:19;4.40;99.90
63313;DHT22;49442;45.640;13.812;2022-12-18T16:32:45;4.30;99.90
63313;DHT22;49442;45.640;13.812;2022-12-18T16:35:12;4.30;99.90
63313;DHT22;49442;45.640;13.812;2022-12-18T16:37:39;4.40;99.90
63313;DHT22;49442;45.640;13.812;2022-12-18T16:40:08;4.30;99.90
63313;DHT22;49442;45.640;13.812;2022-12-18T16:42:35;4.30;99.90
63313;DHT22;49442;45.640;13.812;2022-12-18T16:45:02;4.30;99.90
63313;DHT22;49442;45.640;13.812;2022-12-18T16:47:28;4.30;99.90
63313;DHT22;49442;45.640;13.812;2022-12-18T16:49:53;4.30;99.90
63313;DHT22;49442;45.640;13.812;2022-12-18T16:52:19;4.30;99.90
63313;DHT22;49442;45.640;13.812;2022-12-18T16:54:45;4.30;99.90
63313;DHT22;49442;45.640;13.812;2022-12-18T16:57:18;4.30;99.90
63313;DHT22;49442;45.640;13.812;2022-12-18T16:59:45;4.30;99.90
63313;DHT22;49442;45.640;13.812;2022-12-18T17:02:20;4.20;99.90
63313;DHT22;49442;45.640;13.812;2022-12-18T17:04:47;4.20;99.90
63313;DHT22;49442;45.640;13.812;2022-12-18T17:07:13;4.20;99.90
63313;DHT22;49442;45.640;13.812;2022-12-18T17:09:39;4.20;99.90
63313;DHT22;49442;45.640;13.812;2022-12-18T17:12:05;4.20;99.90
63313;DHT22;49442;45.640;13.812;2022-12-18T17:14:32;4.20;99.90
63313;DHT22;49442;45.640;13.812;2022-12-18T17:16:58;4.20;99.90
63313;DHT22;49442;45.640;13.812;2022-12-18T17:19:25;4.20;99.90
63313;DHT22;49442;45.640;13.812;2022-12-18T17:21:51;4.20;99.90
63313;DHT22;49442;45.640;13.812;2022-12-18T17:24:18;4.10;99.90
63313;DHT22;49442;45.640;13.812;2022-12-18T17:26:43;4.10;99.90
63313;DHT22;49442;45.640;13.812;2022-12-18T17:29:12;4.20;99.90
63313;DHT22;49442;45.640;13.812;2022-12-18T17:31:38;4.20;99.90
63313;DHT22;49442;45.640;13.812;2022-12-18T17:34:04;4.20;99.90
63313;DHT22;49442;45.640;13.812;2022-12-18T17:36:30;4.20;99.90
63313;DHT22;49442;45.640;13.812;2022-12-18T17:38:58;4.20;99.90
63313;DHT22;49442;45.640;13.812;2022-12-18T17:41:25;4.20;99.90
63313;DHT22;49442;45.640;13.812;2022-12-18T17:43:59;4.10;99.90
63313;DHT22;49442;45.640;13.812;2022-12-18T17:46:27;4.10;99.90
63313;DHT22;49442;45.640;13.812;2022-12-18T17:48:59;4.00;99.90
63313;DHT22;49442;45.640;13.812;2022-12-18T17:51:26;4.00;99.90
63313;DHT22;49442;45.640;13.812;2022-12-18T17:53:52;4.00;99.90
63313;DHT22;49442;45.640;13.812;2022-12-18T17:56:19;4.00;99.90
63313;DHT22;49442;45.640;13.812;2022-12-18T17:58:45;4.00;99.90
63313;DHT22;49442;45.640;13.812;2022-12-18T18:01:14;4.00;99.90
63313;DHT22;49442;45.640;13.812;2022-12-18T18:03:40;4.10;99.90
63313;DHT22;49442;45.640;13.812;2022-12-18T18:06:09;4.00;99.90
63313;DHT22;49442;45.640;13.812;2022-12-18T18:08:35;4.10;99.90
63313;DHT22;49442;45.640;13.812;2022-12-18T18:11:05;4.10;99.90
63313;DHT22;49442;45.640;13.812;2022-12-18T18:13:51;4.10;99.90
63313;DHT22;49442;45.640;13.812;2022-12-18T18:16:35;4.00;99.90
63313;DHT22;49442;45.640;13.812;2022-12-18T18:19:04;4.00;99.90
63313;DHT22;49442;45.640;13.812;2022-12-18T18:21:31;4.00;99.90
63313;DHT22;49442;45.640;13.812;2022-12-18T18:24:01;4.00;99.90
63313;DHT22;49442;45.640;13.812;2022-12-18T18:26:29;4.00;99.90
63313;DHT22;49442;45.640;13.812;2022-12-18T18:28:56;4.00;99.90
63313;DHT22;49442;45.640;13.812;2022-12-18T18:31:22;4.00;99.90
63313;DHT22;49442;45.640;13.812;2022-12-18T18:33:50;3.90;99.90
63313;DHT22;49442;45.640;13.812;2022-12-18T18:36:16;3.90;99.90
63313;DHT22;49442;45.640;13.812;2022-12-18T18:38:42;3.90;99.90
63313;DHT22;49442;45.640;13.812;2022-12-18T18:41:11;3.90;99.90
63313;DHT22;49442;45.640;13.812;2022-12-18T18:43:36;3.90;99.90
63313;DHT22;49442;45.640;13.812;2022-12-18T18:46:03;3.90;99.90
63313;DHT22;49442;45.640;13.812;2022-12-18T18:48:32;3.90;99.90
63313;DHT22;49442;45.640;13.812;2022-12-18T18:51:01;3.90;99.90
63313;DHT22;49442;45.640;13.812;2022-12-18T18:53:27;3.90;99.90
63313;DHT22;49442;45.640;13.812;2022-12-18T18:55:56;3.90;99.90
63313;DHT22;49442;45.640;13.812;2022-12-18T18:58:22;3.90;99.90
63313;DHT22;49442;45.640;13.812;2022-12-18T19:01:04;3.90;99.90
63313;DHT22;49442;45.640;13.812;2022-12-18T19:03:30;3.80;99.90
63313;DHT22;49442;45.640;13.812;2022-12-18T19:05:57;3.80;99.90
63313;DHT22;49442;45.640;13.812;2022-12-18T19:08:25;3.80;99.90
63313;DHT22;49442;45.640;13.812;2022-12-18T19:10:53;3.80;99.90
63313;DHT22;49442;45.640;13.812;2022-12-18T19:13:20;3.80;99.90
63313;DHT22;49442;45.640;13.812;2022-12-18T19:15:50;3.80;99.90
63313;DHT22;49442;45.640;13.812;2022-12-18T19:18:17;3.70;99.90
63313;DHT22;49442;45.640;13.812;2022-12-18T19:20:42;3.70;99.90
63313;DHT22;49442;45.640;13.812;2022-12-18T19:23:08;3.70;99.90
63313;DHT22;49442;45.640;13.812;2022-12-18T19:25:38;3.60;99.90
63313;DHT22;49442;45.640;13.812;2022-12-18T19:28:05;3.60;99.90
63313;DHT22;49442;45.640;13.812;2022-12-18T19:30:31;3.60;99.90
63313;DHT22;49442;45.640;13.812;2022-12-18T19:32:56;3.60;99.90
63313;DHT22;49442;45.640;13.812;2022-12-18T19:35:22;3.50;99.90
63313;DHT22;49442;45.640;13.812;2022-12-18T19:37:48;3.50;99.90
63313;DHT22;49442;45.640;13.812;2022-12-18T19:40:13;3.50;99.90
63313;DHT22;49442;45.640;13.812;2022-12-18T19:42:39;3.50;99.90
63313;DHT22;49442;45.640;13.812;2022-12-18T19:45:05;3.50;99.90
63313;DHT22;49442;45.640;13.812;2022-12-18T19:47:31;3.50;99.90
63313;DHT22;49442;45.640;13.812;2022-12-18T19:49:56;3.60;99.90
63313;DHT22;49442;45.640;13.812;2022-12-18T19:52:22;3.60;99.90
63313;DHT22;49442;45.640;13.812;2022-12-18T19:54:48;3.50;99.90
63313;DHT22;49442;45.640;13.812;2022-12-18T19:57:13;3.50;99.90
63313;DHT22;49442;45.640;13.812;2022-12-18T19:59:42;3.60;99.90
63313;DHT22;49442;45.640;13.812;2022-12-18T20:02:12;3.50;99.90
63313;DHT22;49442;45.640;13.812;2022-12-18T20:04:38;3.50;99.90
63313;DHT22;49442;45.640;13.812;2022-12-18T20:07:04;3.50;99.90
63313;DHT22;49442;45.640;13.812;2022-12-18T20:09:30;3.50;99.90
63313;DHT22;49442;45.640;13.812;2022-12-18T20:11:56;3.60;99.90
63313;DHT22;49442;45.640;13.812;2022-12-18T20:14:22;3.60;99.90
63313;DHT22;49442;45.640;13.812;2022-12-18T20:16:47;3.60;99.90
63313;DHT22;49442;45.640;13.812;2022-12-18T20:19:13;3.60;99.90
63313;DHT22;49442;45.640;13.812;2022-12-18T20:21:39;3.60;99.90
63313;DHT22;49442;45.640;13.812;2022-12-18T20:24:06;3.50;99.90
63313;DHT22;49442;45.640;13.812;2022-12-18T20:26:35;3.50;99.90
63313;DHT22;49442;45.640;13.812;2022-12-18T20:29:01;3.50;99.90
63313;DHT22;49442;45.640;13.812;2022-12-18T20:31:27;3.40;99.90
63313;DHT22;49442;45.640;13.812;2022-12-18T20:33:55;3.40;99.90
63313;DHT22;49442;45.640;13.812;2022-12-18T20:36:22;3.40;99.90
63313;DHT22;49442;45.640;13.812;2022-12-18T20:38:48;3.40;99.90
63313;DHT22;49442;45.640;13.812;2022-12-18T20:41:16;3.40;99.90
63313;DHT22;49442;45.640;13.812;2022-12-18T20:43:43;3.40;99.90
63313;DHT22;49442;45.640;13.812;2022-12-18T20:46:09;3.30;99.90
63313;DHT22;49442;45.640;13.812;2022-12-18T20:48:36;3.40;99.90
63313;DHT22;49442;45.640;13.812;2022-12-18T20:51:16;3.30;99.90
63313;DHT22;49442;45.640;13.812;2022-12-18T20:53:42;3.40;99.90
63313;DHT22;49442;45.640;13.812;2022-12-18T20:56:14;3.40;99.90
63313;DHT22;49442;45.640;13.812;2022-12-18T20:58:40;3.30;99.90
63313;DHT22;49442;45.640;13.812;2022-12-18T21:01:15;3.30;99.90
63313;DHT22;49442;45.640;13.812;2022-12-18T21:03:42;3.40;99.90
63313;DHT22;49442;45.640;13.812;2022-12-18T21:06:08;3.30;99.90
63313;DHT22;49442;45.640;13.812;2022-12-18T21:08:35;3.30;99.90
63313;DHT22;49442;45.640;13.812;2022-12-18T21:14:08;3.40;99.90
63313;DHT22;49442;45.640;13.812;2022-12-18T21:16:34;3.40;99.90
63313;DHT22;49442;45.640;13.812;2022-12-18T21:18:59;3.40;99.90
63313;DHT22;49442;45.640;13.812;2022-12-18T21:21:25;3.40;99.90
63313;DHT22;49442;45.640;13.812;2022-12-18T21:23:51;3.40;99.90
63313;DHT22;49442;45.640;13.812;2022-12-18T21:26:21;3.40;99.90
63313;DHT22;49442;45.640;13.812;2022-12-18T21:28:47;3.40;99.90
63313;DHT22;49442;45.640;13.812;2022-12-18T21:31:13;3.40;99.90
63313;DHT22;49442;45.640;13.812;2022-12-18T21:33:39;3.40;99.90
63313;DHT22;49442;45.640;13.812;2022-12-18T21:36:06;3.40;99.90
63313;DHT22;49442;45.640;13.812;2022-12-18T21:38:32;3.40;99.90
63313;DHT22;49442;45.640;13.812;2022-12-18T21:40:57;3.40;99.90
63313;DHT22;49442;45.640;13.812;2022-12-18T21:43:23;3.30;99.90
63313;DHT22;49442;45.640;13.812;2022-12-18T21:46:08;3.30;99.90
63313;DHT22;49442;45.640;13.812;2022-12-18T21:48:33;3.30;99.90
63313;DHT22;49442;45.640;13.812;2022-12-18T21:51:02;3.30;99.90
63313;DHT22;49442;45.640;13.812;2022-12-18T21:53:28;3.30;99.90
63313;DHT22;49442;45.640;13.812;2022-12-18T21:55:58;3.20;99.90
63313;DHT22;49442;45.640;13.812;2022-12-18T21:58:24;3.20;99.90
63313;DHT22;49442;45.640;13.812;2022-12-18T22:00:49;3.20;99.90
63313;DHT22;49442;45.640;13.812;2022-12-18T22:03:16;3.20;99.90
63313;DHT22;49442;45.640;13.812;2022-12-18T22:05:43;3.20;99.90
63313;DHT22;49442;45.640;13.812;2022-12-18T22:08:09;3.20;99.90
63313;DHT22;49442;45.640;13.812;2022-12-18T22:10:35;3.20;99.90
63313;DHT22;49442;45.640;13.812;2022-12-18T22:13:01;3.20;99.90
63313;DHT22;49442;45.640;13.812;2022-12-18T22:15:27;3.20;99.90
63313;DHT22;49442;45.640;13.812;2022-12-18T22:17:52;3.20;99.90
63313;DHT22;49442;45.640;13.812;2022-12-18T22:20:18;3.20;99.90
63313;DHT22;49442;45.640;13.812;2022-12-18T22:22:44;3.20;99.90
63313;DHT22;49442;45.640;13.812;2022-12-18T22:25:10;3.20;99.90
63313;DHT22;49442;45.640;13.812;2022-12-18T22:27:36;3.10;99.90
63313;DHT22;49442;45.640;13.812;2022-12-18T22:30:02;3.10;99.90
63313;DHT22;49442;45.640;13.812;2022-12-18T22:32:32;3.10;99.90
63313;DHT22;49442;45.640;13.812;2022-12-18T22:35:00;3.10;99.90
63313;DHT22;49442;45.640;13.812;2022-12-18T22:37:26;3.10;99.90
63313;DHT22;49442;45.640;13.812;2022-12-18T22:39:51;3.10;99.90
63313;DHT22;49442;45.640;13.812;2022-12-18T22:42:17;3.10;99.90
63313;DHT22;49442;45.640;13.812;2022-12-18T22:44:43;3.10;99.90
63313;DHT22;49442;45.640;13.812;2022-12-18T22:47:09;3.10;99.90
63313;DHT22;49442;45.640;13.812;2022-12-18T22:49:35;3.10;99.90
63313;DHT22;49442;45.640;13.812;2022-12-18T22:52:00;3.10;99.90
63313;DHT22;49442;45.640;13.812;2022-12-18T22:54:26;3.10;99.90
63313;DHT22;49442;45.640;13.812;2022-12-18T22:56:52;3.10;99.90
63313;DHT22;49442;45.640;13.812;2022-12-18T22:59:19;3.10;99.90
63313;DHT22;49442;45.640;13.812;2022-12-18T23:01:46;3.20;99.90
63313;DHT22;49442;45.640;13.812;2022-12-18T23:04:12;3.10;99.90
63313;DHT22;49442;45.640;13.812;2022-12-18T23:06:39;3.10;99.90
63313;DHT22;49442;45.640;13.812;2022-12-18T23:09:05;3.10;99.90
63313;DHT22;49442;45.640;13.812;2022-12-18T23:11:31;3.10;99.90
63313;DHT22;49442;45.640;13.812;2022-12-18T23:13:57;3.10;99.90
63313;DHT22;49442;45.640;13.812;2022-12-18T23:16:23;3.10;99.90
63313;DHT22;49442;45.640;13.812;2022-12-18T23:18:53;3.10;99.90
63313;DHT22;49442;45.640;13.812;2022-12-18T23:21:21;3.10;99.90
63313;DHT22;49442;45.640;13.812;2022-12-18T23:23:47;3.10;99.90
63313;DHT22;49442;45.640;13.812;2022-12-18T23:26:18;3.20;99.90
63313;DHT22;49442;45.640;13.812;2022-12-18T23:28:44;3.10;99.90
63313;DHT22;49442;45.640;13.812;2022-12-18T23:31:14;3.10;99.90
63313;DHT22;49442;45.640;13.812;2022-12-18T23:33:42;3.10;99.90
63313;DHT22;49442;45.640;13.812;2022-12-18T23:36:08;3.10;99.90
63313;DHT22;49442;45.640;13.812;2022-12-18T23:38:34;3.00;99.90
63313;DHT22;49442;45.640;13.812;2022-12-18T23:41:06;3.00;99.90
63313;DHT22;49442;45.640;13.812;2022-12-18T23:43:32;3.00;99.90
63313;DHT22;49442;45.640;13.812;2022-12-18T23:45:57;3.10;99.90
63313;DHT22;49442;45.640;13.812;2022-12-18T23:48:23;3.10;99.90
63313;DHT22;49442;45.640;13.812;2022-12-18T23:50:49;3.00;99.90
63313;DHT22;49442;45.640;13.812;2022-12-18T23:53:14;3.10;99.90
63313;DHT22;49442;45.640;13.812;2022-12-18T23:55:41;3.10;99.90
63313;DHT22;49442;45.640;13.812;2022-12-18T23:58:15;3.10;99.90
